sensor_id;sensor_type;location;lat;lon;timestamp;pressure;altitude;pressure_sealevel;temperature;humidity
54978;BME280;40873;47.522;19.106;2023-08-20T00:01:27;100645.94;;;21.06;100.00
54978;BME280;40873;47.522;19.106;2023-08-20T00:03:55;100642.06;;;21.00;100.00
54978;BME280;40873;47.522;19.106;2023-08-20T00:06:23;100634.84;;;21.01;100.00
54978;BME280;40873;47.522;19.106;2023-08-20T00:08:51;100629.94;;;20.96;100.00
54978;BME280;40873;47.522;19.106;2023-08-20T00:11:18;100627.56;;;20.93;100.00
54978;BME280;40873;47.522;19.106;2023-08-20T00:13:45;100625.84;;;20.92;100.00
54978;BME280;40873;47.522;19.106;2023-08-20T00:16:13;100637.59;;;20.91;100.00
54978;BME280;40873;47.522;19.106;2023-08-20T00:18:40;100630.53;;;20.90;100.00
54978;BME280;40873;47.522;19.106;2023-08-20T00:21:07;100630.31;;;20.84;100.00
54978;BME280;40873;47.522;19.106;2023-08-20T00:23:35;100617.91;;;20.83;100.00
54978;BME280;40873;47.522;19.106;2023-08-20T00:26:03;100628.47;;;20.84;100.00
54978;BME280;40873;47.522;19.106;2023-08-20T00:28:30;100628.63;;;20.83;100.00
54978;BME280;40873;47.522;19.106;2023-08-20T00:31:00;100631.75;;;20.78;100.00
54978;BME280;40873;47.522;19.106;2023-08-20T00:33:28;100634.91;;;20.73;100.00
54978;BME280;40873;47.522;19.106;2023-08-20T00:35:55;100630.81;;;20.69;100.00
54978;BME280;40873;47.522;19.106;2023-08-20T00:38:22;100623.94;;;20.67;100.00
54978;BME280;40873;47.522;19.106;2023-08-20T00:40:49;100625.78;;;20.66;100.00
54978;BME280;40873;47.522;19.106;2023-08-20T00:43:16;100615.75;;;20.68;100.00
54978;BME280;40873;47.522;19.106;2023-08-20T00:45:44;100623.94;;;20.67;100.00
54978;BME280;40873;47.522;19.106;2023-08-20T00:48:11;100612.66;;;20.63;100.00
54978;BME280;40873;47.522;19.106;2023-08-20T00:50:40;100626.91;;;20.64;100.00
54978;BME280;40873;47.522;19.106;2023-08-20T00:53:09;100628.22;;;20.60;100.00
54978;BME280;40873;47.522;19.106;2023-08-20T00:55:38;100626.66;;;20.57;100.00
54978;BME280;40873;47.522;19.106;2023-08-20T00:58:05;100630.91;;;20.60;100.00
54978;BME280;40873;47.522;19.106;2023-08-20T01:00:33;100630.06;;;20.59;100.00
54978;BME280;40873;47.522;19.106;2023-08-20T01:02:59;100626.81;;;20.56;100.00
54978;BME280;40873;47.522;19.106;2023-08-20T01:05:32;100635.84;;;20.55;100.00
54978;BME280;40873;47.522;19.106;2023-08-20T01:08:32;100637.97;;;20.51;100.00
54978;BME280;40873;47.522;19.106;2023-08-20T01:11:30;100637.13;;;20.50;100.00
54978;BME280;40873;47.522;19.106;2023-08-20T01:14:00;100636.75;;;20.45;100.00
54978;BME280;40873;47.522;19.106;2023-08-20T01:16:28;100637.72;;;20.44;100.00
54978;BME280;40873;47.522;19.106;2023-08-20T01:18:55;100640.69;;;20.41;100.00
54978;BME280;40873;47.522;19.106;2023-08-20T01:22:05;100626.59;;;20.39;100.00
54978;BME280;40873;47.522;19.106;2023-08-20T01:25:04;100631.81;;;20.41;100.00
54978;BME280;40873;47.522;19.106;2023-08-20T01:28:03;100631.66;;;20.42;100.00
54978;BME280;40873;47.522;19.106;2023-08-20T01:30:32;100640.69;;;20.41;100.00
54978;BME280;40873;47.522;19.106;2023-08-20T01:33:01;100640.00;;;20.39;100.00
54978;BME280;40873;47.522;19.106;2023-08-20T01:35:29;100630.97;;;20.40;100.00
54978;BME280;40873;47.522;19.106;2023-08-20T01:37:56;100636.16;;;20.42;100.00
54978;BME280;40873;47.522;19.106;2023-08-20T01:40:23;100627.03;;;20.35;100.00
54978;BME280;40873;47.522;19.106;2023-08-20T01:42:50;100632.56;;;20.33;100.00
54978;BME280;40873;47.522;19.106;2023-08-20T01:45:17;100636.22;;;20.32;100.00
54978;BME280;40873;47.522;19.106;2023-08-20T01:47:45;100634.84;;;20.28;100.00
54978;BME280;40873;47.522;19.106;2023-08-20T01:50:12;100632.31;;;20.26;100.00
54978;BME280;40873;47.522;19.106;2023-08-20T01:52:39;100639.66;;;20.24;100.00
54978;BME280;40873;47.522;19.106;2023-08-20T01:55:06;100630.91;;;20.22;100.00
54978;BME280;40873;47.522;19.106;2023-08-20T01:57:33;100630.78;;;20.24;100.00
54978;BME280;40873;47.522;19.106;2023-08-20T02:00:01;100637.09;;;20.23;100.00
54978;BME280;40873;47.522;19.106;2023-08-20T02:02:29;100642.34;;;20.24;100.00
54978;BME280;40873;47.522;19.106;2023-08-20T02:04:56;100635.13;;;20.25;100.00
54978;BME280;40873;47.522;19.106;2023-08-20T02:07:23;100631.38;;;20.18;100.00
54978;BME280;40873;47.522;19.106;2023-08-20T02:09:50;100632.91;;;20.20;100.00
54978;BME280;40873;47.522;19.106;2023-08-20T02:12:18;100634.16;;;20.16;100.00
54978;BME280;40873;47.522;19.106;2023-08-20T02:14:45;100631.38;;;20.18;100.00
54978;BME280;40873;47.522;19.106;2023-08-20T02:17:12;100620.94;;;20.15;100.00
54978;BME280;40873;47.522;19.106;2023-08-20T02:19:39;100624.91;;;20.11;100.00
54978;BME280;40873;47.522;19.106;2023-08-20T02:22:06;100623.50;;;20.07;100.00
54978;BME280;40873;47.522;19.106;2023-08-20T02:24:33;100621.97;;;20.04;100.00
54978;BME280;40873;47.522;19.106;2023-08-20T02:27:00;100622.81;;;20.05;100.00
54978;BME280;40873;47.522;19.106;2023-08-20T02:29:27;100631.53;;;20.07;100.00
54978;BME280;40873;47.522;19.106;2023-08-20T02:31:54;100630.28;;;20.01;100.00
54978;BME280;40873;47.522;19.106;2023-08-20T02:34:22;100624.09;;;20.01;100.00
54978;BME280;40873;47.522;19.106;2023-08-20T02:36:49;100622.84;;;19.95;100.00
54978;BME280;40873;47.522;19.106;2023-08-20T02:39:16;100624.13;;;19.91;100.00
54978;BME280;40873;47.522;19.106;2023-08-20T02:41:44;100628.91;;;19.87;100.00
54978;BME280;40873;47.522;19.106;2023-08-20T02:44:10;100632.06;;;19.83;100.00
54978;BME280;40873;47.522;19.106;2023-08-20T02:46:38;100624.97;;;19.82;100.00
54978;BME280;40873;47.522;19.106;2023-08-20T02:49:05;100639.53;;;19.79;100.00
54978;BME280;40873;47.522;19.106;2023-08-20T02:51:32;100636.84;;;19.79;100.00
54978;BME280;40873;47.522;19.106;2023-08-20T02:53:59;100633.31;;;19.79;100.00
54978;BME280;40873;47.522;19.106;2023-08-20T02:56:26;100630.50;;;19.80;100.00
54978;BME280;40873;47.522;19.106;2023-08-20T02:58:53;100627.81;;;19.80;100.00
54978;BME280;40873;47.522;19.106;2023-08-20T03:01:21;100629.66;;;19.80;100.00
54978;BME280;40873;47.522;19.106;2023-08-20T03:03:48;100631.22;;;19.82;100.00
54978;BME280;40873;47.522;19.106;2023-08-20T03:06:15;100630.34;;;19.82;100.00
54978;BME280;40873;47.522;19.106;2023-08-20T03:08:42;100635.56;;;19.83;100.00
54978;BME280;40873;47.522;19.106;2023-08-20T03:11:10;100634.84;;;19.81;100.00
54978;BME280;40873;47.522;19.106;2023-08-20T03:13:37;100631.22;;;19.82;100.00
54978;BME280;40873;47.522;19.106;2023-08-20T03:16:04;100631.06;;;19.84;100.00
54978;BME280;40873;47.522;19.106;2023-08-20T03:18:31;100638.09;;;19.85;100.00
54978;BME280;40873;47.522;19.106;2023-08-20T03:20:58;100641.19;;;19.80;100.00
54978;BME280;40873;47.522;19.106;2023-08-20T03:23:27;100638.97;;;19.76;100.00
54978;BME280;40873;47.522;19.106;2023-08-20T03:25:57;100640.41;;;19.70;100.00
54978;BME280;40873;47.522;19.106;2023-08-20T03:28:25;100634.88;;;19.71;100.00
54978;BME280;40873;47.522;19.106;2023-08-20T03:30:52;100635.03;;;19.70;100.00
54978;BME280;40873;47.522;19.106;2023-08-20T03:33:19;100634.34;;;19.68;100.00
54978;BME280;40873;47.522;19.106;2023-08-20T03:35:47;100640.53;;;19.68;100.00
54978;BME280;40873;47.522;19.106;2023-08-20T03:38:14;100646.03;;;19.67;100.00
54978;BME280;40873;47.522;19.106;2023-08-20T03:40:41;100639.97;;;19.65;100.00
54978;BME280;40873;47.522;19.106;2023-08-20T03:43:08;100641.97;;;19.63;100.00
54978;BME280;40873;47.522;19.106;2023-08-20T03:45:35;100641.97;;;19.63;100.00
54978;BME280;40873;47.522;19.106;2023-08-20T03:48:03;100645.47;;;19.63;100.00
54978;BME280;40873;47.522;19.106;2023-08-20T03:50:30;100647.47;;;19.61;100.00
54978;BME280;40873;47.522;19.106;2023-08-20T03:52:57;100646.88;;;19.58;100.00
54978;BME280;40873;47.522;19.106;2023-08-20T03:55:24;100653.78;;;19.60;100.00
54978;BME280;40873;47.522;19.106;2023-08-20T03:57:51;100652.66;;;19.63;100.00
54978;BME280;40873;47.522;19.106;2023-08-20T04:00:19;100660.41;;;19.66;100.00
54978;BME280;40873;47.522;19.106;2023-08-20T04:02:45;100660.53;;;19.64;100.00
54978;BME280;40873;47.522;19.106;2023-08-20T04:05:13;100657.72;;;19.66;100.00
54978;BME280;40873;47.522;19.106;2023-08-20T04:07:40;100661.25;;;19.66;100.00
54978;BME280;40873;47.522;19.106;2023-08-20T04:10:10;100663.38;;;19.63;100.00
54978;BME280;40873;47.522;19.106;2023-08-20T04:12:37;100664.38;;;19.62;100.00
54978;BME280;40873;47.522;19.106;2023-08-20T04:15:04;100660.25;;;19.67;100.00
54978;BME280;40873;47.522;19.106;2023-08-20T04:17:31;100664.34;;;19.71;100.00
54978;BME280;40873;47.522;19.106;2023-08-20T04:19:59;100670.53;;;19.72;100.00
54978;BME280;40873;47.522;19.106;2023-08-20T04:22:26;100674.50;;;19.68;100.00
54978;BME280;40873;47.522;19.106;2023-08-20T04:24:54;100669.53;;;19.73;100.00
54978;BME280;40873;47.522;19.106;2023-08-20T04:27:21;100677.41;;;19.75;100.00
54978;BME280;40873;47.522;19.106;2023-08-20T04:29:48;100673.31;;;19.80;100.00
54978;BME280;40873;47.522;19.106;2023-08-20T04:32:15;100674.06;;;19.82;100.00
54978;BME280;40873;47.522;19.106;2023-08-20T04:34:42;100681.22;;;19.82;100.00
54978;BME280;40873;47.522;19.106;2023-08-20T04:37:09;100677.41;;;19.84;100.00
54978;BME280;40873;47.522;19.106;2023-08-20T04:39:36;100679.66;;;19.89;100.00
54978;BME280;40873;47.522;19.106;2023-08-20T04:42:03;100680.38;;;19.91;100.00
54978;BME280;40873;47.522;19.106;2023-08-20T04:44:30;100675.84;;;19.91;100.00
54978;BME280;40873;47.522;19.106;2023-08-20T04:46:57;100682.47;;;19.97;100.00
54978;BME280;40873;47.522;19.106;2023-08-20T04:49:24;100685.41;;;20.04;100.00
54978;BME280;40873;47.522;19.106;2023-08-20T04:51:55;100686.63;;;20.09;100.00
54978;BME280;40873;47.522;19.106;2023-08-20T04:54:22;100686.22;;;20.14;100.00
54978;BME280;40873;47.522;19.106;2023-08-20T04:56:49;100685.78;;;20.18;100.00
54978;BME280;40873;47.522;19.106;2023-08-20T04:59:16;100684.47;;;20.22;100.00
54978;BME280;40873;47.522;19.106;2023-08-20T05:01:43;100686.56;;;20.29;100.00
54978;BME280;40873;47.522;19.106;2023-08-20T05:04:10;100678.63;;;20.37;100.00
54978;BME280;40873;47.522;19.106;2023-08-20T05:06:37;100682.72;;;20.41;100.00
54978;BME280;40873;47.522;19.106;2023-08-20T05:09:04;100681.34;;;20.46;100.00
54978;BME280;40873;47.522;19.106;2023-08-20T05:11:31;100686.78;;;20.55;100.00
54978;BME280;40873;47.522;19.106;2023-08-20T05:14:00;100690.41;;;20.63;100.00
54978;BME280;40873;47.522;19.106;2023-08-20T05:16:27;100686.28;;;20.69;100.00
54978;BME280;40873;47.522;19.106;2023-08-20T05:18:54;100699.78;;;20.77;100.00
54978;BME280;40873;47.522;19.106;2023-08-20T05:21:21;100694.50;;;20.85;100.00
54978;BME280;40873;47.522;19.106;2023-08-20T05:23:52;100697.31;;;20.93;100.00
54978;BME280;40873;47.522;19.106;2023-08-20T05:26:19;100697.00;;;20.96;100.00
54978;BME280;40873;47.522;19.106;2023-08-20T05:28:46;100694.09;;;21.07;100.00
54978;BME280;40873;47.522;19.106;2023-08-20T05:31:13;100691.50;;;21.16;100.00
54978;BME280;40873;47.522;19.106;2023-08-20T05:33:40;100690.41;;;21.26;100.00
54978;BME280;40873;47.522;19.106;2023-08-20T05:36:07;100693.06;;;21.36;100.00
54978;BME280;40873;47.522;19.106;2023-08-20T05:38:34;100692.97;;;21.46;100.00
54978;BME280;40873;47.522;19.106;2023-08-20T05:41:01;100692.88;;;21.55;100.00
54978;BME280;40873;47.522;19.106;2023-08-20T05:43:28;100701.31;;;21.60;100.00
54978;BME280;40873;47.522;19.106;2023-08-20T05:45:55;100701.91;;;21.72;100.00
54978;BME280;40873;47.522;19.106;2023-08-20T05:48:22;100699.13;;;21.82;100.00
54978;BME280;40873;47.522;19.106;2023-08-20T05:50:49;100695.34;;;21.93;100.00
54978;BME280;40873;47.522;19.106;2023-08-20T05:53:16;100698.25;;;21.99;100.00
54978;BME280;40873;47.522;19.106;2023-08-20T05:55:43;100702.41;;;22.11;100.00
54978;BME280;40873;47.522;19.106;2023-08-20T05:58:10;100702.44;;;22.20;100.00
54978;BME280;40873;47.522;19.106;2023-08-20T06:00:37;100710.22;;;22.31;100.00
54978;BME280;40873;47.522;19.106;2023-08-20T06:03:05;100709.28;;;22.40;100.00
54978;BME280;40873;47.522;19.106;2023-08-20T06:05:34;100714.53;;;22.50;100.00
54978;BME280;40873;47.522;19.106;2023-08-20T06:08:01;100717.91;;;22.60;100.00
54978;BME280;40873;47.522;19.106;2023-08-20T06:10:28;100712.25;;;22.71;100.00
54978;BME280;40873;47.522;19.106;2023-08-20T06:12:55;100711.28;;;22.80;100.00
54978;BME280;40873;47.522;19.106;2023-08-20T06:15:23;100709.16;;;22.92;100.00
54978;BME280;40873;47.522;19.106;2023-08-20T06:17:50;100712.88;;;22.99;100.00
54978;BME280;40873;47.522;19.106;2023-08-20T06:20:17;100714.75;;;23.07;100.00
54978;BME280;40873;47.522;19.106;2023-08-20T06:22:45;100716.13;;;23.19;100.00
54978;BME280;40873;47.522;19.106;2023-08-20T06:25:12;100719.84;;;23.26;100.00
54978;BME280;40873;47.522;19.106;2023-08-20T06:27:41;100724.94;;;23.37;100.00
54978;BME280;40873;47.522;19.106;2023-08-20T06:30:08;100720.38;;;23.46;100.00
54978;BME280;40873;47.522;19.106;2023-08-20T06:32:36;100730.16;;;23.55;100.00
54978;BME280;40873;47.522;19.106;2023-08-20T06:35:03;100720.25;;;23.64;100.00
54978;BME280;40873;47.522;19.106;2023-08-20T06:37:30;100726.81;;;23.69;100.00
54978;BME280;40873;47.522;19.106;2023-08-20T06:39:57;100719.41;;;23.79;100.00
54978;BME280;40873;47.522;19.106;2023-08-20T06:42:25;100728.16;;;23.90;100.00
54978;BME280;40873;47.522;19.106;2023-08-20T06:44:51;100725.63;;;23.96;100.00
54978;BME280;40873;47.522;19.106;2023-08-20T06:47:19;100726.13;;;24.08;100.00
54978;BME280;40873;47.522;19.106;2023-08-20T06:49:45;100724.59;;;24.14;100.00
54978;BME280;40873;47.522;19.106;2023-08-20T06:52:12;100727.75;;;24.25;100.00
54978;BME280;40873;47.522;19.106;2023-08-20T06:54:39;100734.84;;;24.35;100.00
54978;BME280;40873;47.522;19.106;2023-08-20T06:57:06;100726.88;;;24.49;100.00
54978;BME280;40873;47.522;19.106;2023-08-20T06:59:33;100727.19;;;24.54;100.00
54978;BME280;40873;47.522;19.106;2023-08-20T07:02:01;100725.47;;;24.61;100.00
54978;BME280;40873;47.522;19.106;2023-08-20T07:04:27;100729.00;;;24.70;100.00
54978;BME280;40873;47.522;19.106;2023-08-20T07:06:55;100731.28;;;24.81;100.00
54978;BME280;40873;47.522;19.106;2023-08-20T07:09:22;100729.91;;;24.94;100.00
54978;BME280;40873;47.522;19.106;2023-08-20T07:11:49;100732.91;;;25.07;100.00
54978;BME280;40873;47.522;19.106;2023-08-20T07:14:16;100729.81;;;25.18;100.00
54978;BME280;40873;47.522;19.106;2023-08-20T07:16:43;100734.59;;;25.31;100.00
54978;BME280;40873;47.522;19.106;2023-08-20T07:19:10;100724.59;;;25.39;100.00
54978;BME280;40873;47.522;19.106;2023-08-20T07:21:37;100727.41;;;25.46;100.00
54978;BME280;40873;47.522;19.106;2023-08-20T07:24:04;100728.84;;;25.57;100.00
54978;BME280;40873;47.522;19.106;2023-08-20T07:26:31;100731.31;;;25.66;100.00
54978;BME280;40873;47.522;19.106;2023-08-20T07:28:58;100726.50;;;25.77;100.00
54978;BME280;40873;47.522;19.106;2023-08-20T07:31:31;100731.31;;;25.89;100.00
54978;BME280;40873;47.522;19.106;2023-08-20T07:34:02;100730.84;;;26.01;100.00
54978;BME280;40873;47.522;19.106;2023-08-20T07:36:32;100730.91;;;26.15;100.00
54978;BME280;40873;47.522;19.106;2023-08-20T07:39:00;100729.38;;;26.28;100.00
54978;BME280;40873;47.522;19.106;2023-08-20T07:41:29;100733.16;;;26.41;100.00
54978;BME280;40873;47.522;19.106;2023-08-20T07:43:56;100728.59;;;26.57;100.00
54978;BME280;40873;47.522;19.106;2023-08-20T07:46:23;100723.09;;;26.65;100.00
54978;BME280;40873;47.522;19.106;2023-08-20T07:48:50;100725.19;;;26.84;100.00
54978;BME280;40873;47.522;19.106;2023-08-20T07:51:17;100732.91;;;27.02;100.00
54978;BME280;40873;47.522;19.106;2023-08-20T07:53:44;100718.25;;;27.11;100.00
54978;BME280;40873;47.522;19.106;2023-08-20T07:56:11;100728.88;;;27.27;100.00
54978;BME280;40873;47.522;19.106;2023-08-20T07:58:38;100738.13;;;27.40;100.00
54978;BME280;40873;47.522;19.106;2023-08-20T08:01:05;100729.25;;;27.46;100.00
54978;BME280;40873;47.522;19.106;2023-08-20T08:03:32;100728.53;;;27.58;100.00
54978;BME280;40873;47.522;19.106;2023-08-20T08:05:59;100732.88;;;27.74;99.07
54978;BME280;40873;47.522;19.106;2023-08-20T08:08:26;100729.91;;;27.91;98.55
54978;BME280;40873;47.522;19.106;2023-08-20T08:10:53;100726.28;;;28.11;100.00
54978;BME280;40873;47.522;19.106;2023-08-20T08:13:22;100732.66;;;28.25;100.00
54978;BME280;40873;47.522;19.106;2023-08-20T08:15:50;100736.06;;;28.34;99.46
54978;BME280;40873;47.522;19.106;2023-08-20T08:18:18;100737.00;;;28.48;91.99
54978;BME280;40873;47.522;19.106;2023-08-20T08:20:46;100736.84;;;28.62;94.32
54978;BME280;40873;47.522;19.106;2023-08-20T08:23:13;100734.41;;;28.74;88.75
54978;BME280;40873;47.522;19.106;2023-08-20T08:25:41;100738.00;;;28.81;87.45
54978;BME280;40873;47.522;19.106;2023-08-20T08:28:08;100734.75;;;28.99;88.06
54978;BME280;40873;47.522;19.106;2023-08-20T08:30:35;100735.19;;;29.03;86.47
54978;BME280;40873;47.522;19.106;2023-08-20T08:33:02;100731.44;;;29.10;87.84
54978;BME280;40873;47.522;19.106;2023-08-20T08:35:29;100733.97;;;29.25;83.65
54978;BME280;40873;47.522;19.106;2023-08-20T08:37:56;100733.41;;;29.43;82.13
54978;BME280;40873;47.522;19.106;2023-08-20T08:40:28;100728.03;;;29.56;84.73
54978;BME280;40873;47.522;19.106;2023-08-20T08:42:56;100724.25;;;29.64;82.85
54978;BME280;40873;47.522;19.106;2023-08-20T08:45:23;100731.16;;;29.73;86.10
54978;BME280;40873;47.522;19.106;2023-08-20T08:47:54;100737.66;;;29.79;82.19
54978;BME280;40873;47.522;19.106;2023-08-20T08:50:21;100730.31;;;29.99;84.06
54978;BME280;40873;47.522;19.106;2023-08-20T08:52:51;100732.84;;;30.14;85.05
54978;BME280;40873;47.522;19.106;2023-08-20T08:55:19;100729.25;;;30.33;83.64
54978;BME280;40873;47.522;19.106;2023-08-20T08:57:46;100736.59;;;30.39;82.36
54978;BME280;40873;47.522;19.106;2023-08-20T09:00:13;100738.25;;;30.40;80.15
54978;BME280;40873;47.522;19.106;2023-08-20T09:02:40;100735.28;;;30.48;78.86
54978;BME280;40873;47.522;19.106;2023-08-20T09:05:08;100727.31;;;30.60;79.07
54978;BME280;40873;47.522;19.106;2023-08-20T09:50:10;100733.72;;;32.37;70.18
54978;BME280;40873;47.522;19.106;2023-08-20T09:52:55;100723.03;;;32.54;70.85
54978;BME280;40873;47.522;19.106;2023-08-20T09:55:29;100734.84;;;32.66;70.63
54978;BME280;40873;47.522;19.106;2023-08-20T09:57:57;100728.88;;;32.76;69.00
54978;BME280;40873;47.522;19.106;2023-08-20T10:00:24;100731.72;;;32.81;67.86
54978;BME280;40873;47.522;19.106;2023-08-20T10:02:52;100722.66;;;32.87;66.90
54978;BME280;40873;47.522;19.106;2023-08-20T10:05:20;100730.22;;;32.85;63.07
54978;BME280;40873;47.522;19.106;2023-08-20T10:07:49;100715.88;;;32.89;66.43
54978;BME280;40873;47.522;19.106;2023-08-20T10:10:17;100710.22;;;32.91;66.11
54978;BME280;40873;47.522;19.106;2023-08-20T10:12:45;100719.75;;;33.00;63.87
54978;BME280;40873;47.522;19.106;2023-08-20T10:15:13;100715.72;;;33.33;61.69
54978;BME280;40873;47.522;19.106;2023-08-20T10:17:42;100717.44;;;33.45;64.33
54978;BME280;40873;47.522;19.106;2023-08-20T10:20:10;100709.00;;;33.59;59.44
54978;BME280;40873;47.522;19.106;2023-08-20T10:22:38;100709.50;;;33.67;61.12
54978;BME280;40873;47.522;19.106;2023-08-20T10:25:10;100713.19;;;33.85;59.87
54978;BME280;40873;47.522;19.106;2023-08-20T10:27:40;100713.97;;;34.03;59.26
54978;BME280;40873;47.522;19.106;2023-08-20T10:30:09;100715.38;;;34.18;59.44
54978;BME280;40873;47.522;19.106;2023-08-20T10:35:24;100708.94;;;34.35;56.61
54978;BME280;40873;47.522;19.106;2023-08-20T10:38:22;100709.16;;;34.34;52.49
54978;BME280;40873;47.522;19.106;2023-08-20T10:40:58;100707.84;;;34.48;52.23
54978;BME280;40873;47.522;19.106;2023-08-20T10:43:37;100701.06;;;34.39;52.61
54978;BME280;40873;47.522;19.106;2023-08-20T10:46:20;100692.25;;;34.37;57.67
54978;BME280;40873;47.522;19.106;2023-08-20T10:48:54;100698.34;;;34.51;51.53
54978;BME280;40873;47.522;19.106;2023-08-20T10:56:45;100694.44;;;34.12;50.24
54978;BME280;40873;47.522;19.106;2023-08-20T10:59:14;100688.00;;;34.18;48.93
54978;BME280;40873;47.522;19.106;2023-08-20T11:01:48;100694.50;;;34.64;51.78
54978;BME280;40873;47.522;19.106;2023-08-20T11:04:17;100688.94;;;35.15;51.05
54978;BME280;40873;47.522;19.106;2023-08-20T11:06:50;100681.69;;;35.55;53.72
54978;BME280;40873;47.522;19.106;2023-08-20T11:09:19;100681.19;;;35.58;48.03
54978;BME280;40873;47.522;19.106;2023-08-20T11:11:48;100678.19;;;35.93;45.69
54978;BME280;40873;47.522;19.106;2023-08-20T11:14:15;100677.13;;;36.16;45.53
54978;BME280;40873;47.522;19.106;2023-08-20T11:16:45;100681.16;;;36.47;42.92
54978;BME280;40873;47.522;19.106;2023-08-20T11:19:21;100684.66;;;36.64;44.27
54978;BME280;40873;47.522;19.106;2023-08-20T11:21:49;100681.34;;;36.62;42.40
54978;BME280;40873;47.522;19.106;2023-08-20T11:24:17;100675.22;;;36.55;42.68
54978;BME280;40873;47.522;19.106;2023-08-20T11:26:48;100677.06;;;36.49;44.06
54978;BME280;40873;47.522;19.106;2023-08-20T11:29:16;100677.91;;;36.72;44.46
54978;BME280;40873;47.522;19.106;2023-08-20T11:31:48;100675.44;;;36.75;43.28
54978;BME280;40873;47.522;19.106;2023-08-20T11:34:16;100670.06;;;36.86;42.82
54978;BME280;40873;47.522;19.106;2023-08-20T11:36:45;100672.47;;;37.04;43.08
54978;BME280;40873;47.522;19.106;2023-08-20T11:39:12;100671.44;;;37.10;40.55
54978;BME280;40873;47.522;19.106;2023-08-20T11:41:40;100665.50;;;37.23;41.80
54978;BME280;40873;47.522;19.106;2023-08-20T11:44:10;100654.72;;;37.44;39.65
54978;BME280;40873;47.522;19.106;2023-08-20T11:46:43;100660.38;;;37.69;39.51
54978;BME280;40873;47.522;19.106;2023-08-20T11:49:12;100653.94;;;37.85;39.93
54978;BME280;40873;47.522;19.106;2023-08-20T11:51:46;100658.56;;;37.48;40.22
54978;BME280;40873;47.522;19.106;2023-08-20T11:54:15;100657.31;;;37.28;41.26
54978;BME280;40873;47.522;19.106;2023-08-20T11:56:48;100649.72;;;37.41;44.27
54978;BME280;40873;47.522;19.106;2023-08-20T11:59:16;100657.78;;;36.44;44.92
54978;BME280;40873;47.522;19.106;2023-08-20T12:01:51;100663.81;;;36.68;47.30
54978;BME280;40873;47.522;19.106;2023-08-20T12:04:18;100653.22;;;37.04;45.57
54978;BME280;40873;47.522;19.106;2023-08-20T12:07:13;100646.03;;;36.76;44.98
54978;BME280;40873;47.522;19.106;2023-08-20T12:09:40;100648.66;;;37.15;44.40
54978;BME280;40873;47.522;19.106;2023-08-20T12:12:09;100648.94;;;37.45;41.97
54978;BME280;40873;47.522;19.106;2023-08-20T12:14:37;100658.81;;;37.78;42.65
54978;BME280;40873;47.522;19.106;2023-08-20T12:17:06;100642.97;;;37.91;41.84
54978;BME280;40873;47.522;19.106;2023-08-20T12:19:34;100644.91;;;37.58;40.54
54978;BME280;40873;47.522;19.106;2023-08-20T12:22:01;100645.69;;;37.53;41.34
54978;BME280;40873;47.522;19.106;2023-08-20T12:24:29;100645.41;;;37.50;40.51
54978;BME280;40873;47.522;19.106;2023-08-20T12:26:57;100636.09;;;37.56;41.33
54978;BME280;40873;47.522;19.106;2023-08-20T12:29:24;100641.88;;;37.59;43.17
54978;BME280;40873;47.522;19.106;2023-08-20T12:31:51;100640.41;;;37.47;43.60
54978;BME280;40873;47.522;19.106;2023-08-20T12:34:20;100641.06;;;37.59;45.84
54978;BME280;40873;47.522;19.106;2023-08-20T12:36:49;100639.00;;;37.76;46.20
54978;BME280;40873;47.522;19.106;2023-08-20T12:39:16;100635.50;;;37.86;46.44
54978;BME280;40873;47.522;19.106;2023-08-20T12:41:44;100632.56;;;38.08;42.70
54978;BME280;40873;47.522;19.106;2023-08-20T12:44:11;100630.88;;;38.02;46.45
54978;BME280;40873;47.522;19.106;2023-08-20T12:46:38;100631.78;;;37.70;42.45
54978;BME280;40873;47.522;19.106;2023-08-20T12:49:05;100628.69;;;37.99;44.99
54978;BME280;40873;47.522;19.106;2023-08-20T12:51:32;100625.47;;;38.22;45.10
54978;BME280;40873;47.522;19.106;2023-08-20T12:53:59;100624.19;;;38.35;43.42
54978;BME280;40873;47.522;19.106;2023-08-20T12:56:27;100627.72;;;38.25;40.46
54978;BME280;40873;47.522;19.106;2023-08-20T12:58:53;100618.59;;;38.20;39.56
54978;BME280;40873;47.522;19.106;2023-08-20T13:01:21;100624.09;;;38.20;39.60
54978;BME280;40873;47.522;19.106;2023-08-20T13:03:48;100617.03;;;38.39;40.36
54978;BME280;40873;47.522;19.106;2023-08-20T13:06:16;100618.50;;;38.67;40.33
54978;BME280;40873;47.522;19.106;2023-08-20T13:08:43;100620.69;;;38.60;42.18
54978;BME280;40873;47.522;19.106;2023-08-20T13:11:13;100615.94;;;38.50;41.68
54978;BME280;40873;47.522;19.106;2023-08-20T13:13:43;100617.81;;;38.29;42.43
54978;BME280;40873;47.522;19.106;2023-08-20T13:16:11;100614.13;;;38.08;41.55
54978;BME280;40873;47.522;19.106;2023-08-20T13:18:38;100610.50;;;37.98;42.08
54978;BME280;40873;47.522;19.106;2023-08-20T13:21:05;100616.56;;;38.00;41.40
54978;BME280;40873;47.522;19.106;2023-08-20T13:23:32;100609.47;;;38.14;40.88
54978;BME280;40873;47.522;19.106;2023-08-20T13:26:00;100609.38;;;38.61;39.69
54978;BME280;40873;47.522;19.106;2023-08-20T13:28:27;100607.47;;;38.72;41.58
54978;BME280;40873;47.522;19.106;2023-08-20T13:30:54;100605.34;;;39.15;40.11